Time;durP1;ratioP1;P1;durP2;ratioP2;P2;SDS_P1;SDS_P2;PMS_P1;PMS_P2;Temp;Humidity;BMP_temperature;BMP_pressure;BME280_temperature;BME280_humidity;BME280_pressure;Samples;Min_cycle;Max_cycle;Signal;HPM_P1;HPM_P2
2021/12/15 00:01:25;;;;;;;5.95;3.40;;;;;;;-2.06;100.00;100542.09;5112549;28;20046;-65
2021/12/15 00:03:51;;;;;;;;;;;;;;;-2.07;100.00;100539.59;5112869;28;20134;-65
2021/12/15 00:06:19;;;;;;;4.78;3.10;;;;;;;-2.11;100.00;100533.63;5112747;28;20323;-65
2021/12/15 00:08:48;;;;;;;5.90;4.32;;;;;;;-2.11;100.00;100527.69;5112410;28;20048;-65
2021/12/15 00:11:18;;;;;;;6.70;4.43;;;;;;;-2.09;100.00;100520.91;5115960;28;20476;-65
2021/12/15 00:13:46;;;;;;;7.55;4.68;;;;;;;-2.09;100.00;100519.19;5116049;28;20043;-65
2021/12/15 00:16:16;;;;;;;12.95;6.13;;;;;;;-2.09;100.00;100526.00;5115858;28;20075;-65
2021/12/15 00:18:44;;;;;;;6.85;4.40;;;;;;;-2.10;100.00;100531.97;5115967;28;20075;-64
2021/12/15 00:21:14;;;;;;;5.97;3.85;;;;;;;-2.11;100.00;100522.59;5115987;28;20478;-65
2021/12/15 00:23:42;;;;;;;6.00;2.40;;;;;;;-2.12;100.00;100515.81;5116222;28;20134;-63
2021/12/15 00:26:09;;;;;;;3.58;2.85;;;;;;;-2.14;100.00;100518.38;5116462;28;20055;-65
2021/12/15 00:28:38;;;;;;;5.90;3.85;;;;;;;-2.13;100.00;100524.31;5116114;28;20046;-65
2021/12/15 00:31:05;;;;;;;2.92;2.28;;;;;;;-2.15;100.00;100523.50;5116173;28;20074;-63
2021/12/15 00:33:33;;;;;;;2.33;1.88;;;;;;;-2.17;100.00;100520.94;5116218;28;20050;-63
2021/12/15 00:35:59;;;;;;;;;;;;;;;-2.19;100.00;100520.94;5117104;28;20044;-64
2021/12/15 00:38:27;;;;;;;7.85;4.10;;;;;;;-2.16;100.00;100514.13;5116167;28;20015;-65
2021/12/15 00:40:53;;;;;;;;;;;;;;;-2.18;100.00;100506.53;5116318;28;20134;-64
2021/12/15 00:43:22;;;;;;;4.47;3.30;;;;;;;-2.19;100.00;100512.47;5127534;22;20395;-79
2021/12/15 00:45:50;;;;;;;3.45;2.60;;;;;;;-2.19;100.00;100508.19;5115741;28;20111;-76
2021/12/15 00:48:17;;;;;;;5.00;3.38;;;;;;;-2.16;100.00;100506.50;5115298;28;20043;-78
2021/12/15 00:50:46;;;;;;;10.00;4.55;;;;;;;-2.20;100.00;100511.63;5115332;28;20082;-80
2021/12/15 00:53:13;;;;;;;6.97;3.97;;;;;;;-2.15;100.00;100510.75;5115183;28;20122;-81
2021/12/15 00:55:43;;;;;;;5.70;3.20;;;;;;;-2.15;100.00;100511.59;5115449;28;20134;-78
2021/12/15 00:58:11;;;;;;;4.45;2.72;;;;;;;-2.17;100.00;100515.00;5115583;28;20096;-78
2021/12/15 01:00:41;;;;;;;4.53;3.10;;;;;;;-2.17;100.00;100512.47;5115292;28;20126;-80
2021/12/15 01:03:10;;;;;;;6.45;4.22;;;;;;;-2.17;100.00;100507.38;5115058;28;20134;-81
2021/12/15 01:05:40;;;;;;;6.50;3.72;;;;;;;-2.18;100.00;100503.97;5115039;28;20138;-76
2021/12/15 01:08:10;;;;;;;6.78;3.17;;;;;;;-2.20;100.00;100496.31;5115369;28;20071;-80
2021/12/15 01:10:54;;;;;;;5.40;3.50;;;;;;;-2.22;100.00;100497.19;5115149;28;20123;-77
2021/12/15 01:21:52;;;;;;;8.43;2.83;;;;;;;-2.17;100.00;100480.16;5031238;28;20049;-75
2021/12/15 01:24:19;;;;;;;;;;;;;;;-2.16;100.00;100483.56;5032670;28;20208;-76
2021/12/15 01:26:46;;;;;;;4.50;3.33;;;;;;;-2.21;100.00;100476.81;5068706;28;20018;-76
2021/12/15 01:29:13;;;;;;;6.57;3.35;;;;;;;-2.22;100.00;100480.19;5114733;28;20051;-75
2021/12/15 01:31:40;;;;;;;7.97;4.43;;;;;;;-2.27;100.00;100475.97;5114702;28;20131;-75
2021/12/15 01:34:08;;;;;;;;;;;;;;;-2.27;100.00;100458.97;5115062;28;20130;-76
2021/12/15 01:36:35;;;;;;;3.47;2.58;;;;;;;-2.29;100.00;100460.69;5114547;28;19927;-75
2021/12/15 01:39:05;;;;;;;5.55;2.42;;;;;;;-2.30;100.00;100455.63;5114584;28;20071;-76
2021/12/15 01:41:32;;;;;;;5.25;3.22;;;;;;;-2.31;100.00;100459.88;5114487;28;20044;-74
2021/12/15 01:46:55;;;;;;;5.75;3.65;;;;;;;-2.34;100.00;100438.66;5114238;28;20592;-63
2021/12/15 01:49:27;;;;;;;9.63;5.10;;;;;;;-2.32;100.00;100439.50;5114290;28;20047;-64
2021/12/15 01:51:55;;;;;;;9.75;4.90;;;;;;;-2.26;100.00;100429.25;5114356;28;20506;-63
2021/12/15 01:54:24;;;;;;;8.20;3.85;;;;;;;-2.27;100.00;100430.09;5114256;28;20482;-63
2021/12/15 01:56:52;;;;;;;5.85;3.55;;;;;;;-2.30;100.00;100417.41;5114065;28;20048;-64
2021/12/15 01:59:22;;;;;;;10.18;4.90;;;;;;;-2.28;100.00;100415.69;5114492;28;20075;-64
2021/12/15 02:01:49;;;;;;;4.55;2.15;;;;;;;-2.32;100.00;100403.81;5114383;28;20062;-63
2021/12/15 02:04:18;;;;;;;;;;;;;;;-2.36;100.00;100412.31;5114533;28;20046;-64
2021/12/15 02:06:48;;;;;;;2.70;2.35;;;;;;;-2.41;100.00;100403.03;5114336;28;19927;-63
2021/12/15 02:09:35;;;;;;;9.07;4.30;;;;;;;-2.42;100.00;100405.59;5114016;28;20143;-62
2021/12/15 02:12:02;;;;;;;3.83;2.90;;;;;;;-2.41;100.00;100397.94;5113680;28;20047;-63
2021/12/15 02:14:31;;;;;;;5.43;2.70;;;;;;;-2.35;100.00;100398.75;5113946;28;20047;-63
2021/12/15 02:16:58;;;;;;;6.07;3.78;;;;;;;-2.36;100.00;100394.50;5113672;28;20054;-63
2021/12/15 02:19:26;;;;;;;6.15;4.32;;;;;;;-2.45;100.00;100390.31;5113831;28;20044;-62
2021/12/15 02:21:54;;;;;;;;;;;;;;;-2.43;100.00;100393.72;5113864;28;20138;-63
2021/12/15 02:24:21;;;;;;;6.60;3.83;;;;;;;-2.37;100.00;100385.16;5113398;28;19926;-63
2021/12/15 02:26:51;;;;;;;;;;;;;;;-2.37;100.00;100386.00;5113983;28;20072;-63
2021/12/15 02:29:21;;;;;;;6.28;3.20;;;;;;;-2.42;100.00;100393.69;5113652;28;19920;-63
2021/12/15 02:32:05;;;;;;;3.15;2.47;;;;;;;-2.46;100.00;100384.38;5113484;28;20069;-63
2021/12/15 02:34:54;;;;;;;3.58;2.67;;;;;;;-2.51;100.00;100390.38;5113146;28;20074;-63
2021/12/15 02:37:22;;;;;;;4.90;3.47;;;;;;;-2.50;100.00;100386.97;5112993;28;20537;-63
2021/12/15 02:39:51;;;;;;;6.90;4.30;;;;;;;-2.49;100.00;100376.78;5113354;28;20048;-63
2021/12/15 02:42:20;;;;;;;6.13;3.97;;;;;;;-2.44;100.00;100369.94;5113226;28;20065;-63
2021/12/15 02:44:47;;;;;;;5.22;3.60;;;;;;;-2.49;100.00;100363.16;5113623;28;20058;-62
2021/12/15 02:47:15;;;;;;;;;;;;;;;-2.53;100.00;100357.25;5113538;28;20160;-62
2021/12/15 02:49:42;;;;;;;3.97;3.05;;;;;;;-2.53;100.00;100364.06;5113019;28;20014;-63
2021/12/15 02:52:10;;;;;;;6.35;4.07;;;;;;;-2.54;100.00;100360.69;5113156;28;20130;-62
2021/12/15 02:54:38;;;;;;;6.13;4.13;;;;;;;-2.53;100.00;100357.25;5112809;28;20135;-64
2021/12/15 02:57:10;;;;;;;5.70;3.20;;;;;;;-2.48;100.00;100369.97;5112923;28;20054;-63
2021/12/15 02:59:48;;;;;;;6.55;2.72;;;;;;;-2.47;100.00;100367.38;5113173;28;20067;-63
2021/12/15 03:02:37;;;;;;;3.40;2.63;;;;;;;-2.47;100.00;100356.38;5112728;28;20466;-63
2021/12/15 03:05:11;;;;;;;5.95;3.88;;;;;;;-2.52;100.00;100358.09;5112834;28;20039;-63
2021/12/15 03:07:44;;;;;;;8.18;4.35;;;;;;;-2.54;100.00;100357.25;5112966;28;20043;-63
2021/12/15 03:15:48;;;;;;;4.97;3.92;;;;;;;-2.55;100.00;100363.22;5029912;28;20045;-62
2021/12/15 03:18:18;;;;;;;5.80;3.63;;;;;;;-2.53;100.00;100354.72;5092465;28;20118;-62
2021/12/15 03:20:50;;;;;;;8.00;2.97;;;;;;;-2.54;100.00;100355.59;5112856;28;20130;-63
2021/12/15 03:23:23;;;;;;;4.10;3.00;;;;;;;-2.55;100.00;100353.88;5112733;28;20131;-62
2021/12/15 03:25:52;;;;;;;8.75;3.65;;;;;;;-2.56;100.00;100352.19;5112866;28;20045;-62
2021/12/15 03:34:10;;;;;;;7.70;4.18;;;;;;;-2.51;100.00;100347.91;5112886;28;20050;-63
2021/12/15 03:37:06;;;;;;;5.60;3.17;;;;;;;-2.53;100.00;100351.31;5112560;28;20054;-63
2021/12/15 03:39:39;;;;;;;7.05;4.15;;;;;;;-2.51;100.00;100354.72;5112534;28;20088;-63
2021/12/15 03:42:10;;;;;;;5.40;2.50;;;;;;;-2.51;100.00;100350.47;5112440;28;20046;-64
2021/12/15 03:44:39;;;;;;;4.75;3.40;;;;;;;-2.52;100.00;100342.81;5122387;22;20500;-78
2021/12/15 03:47:08;;;;;;;8.40;3.95;;;;;;;-2.50;100.00;100325.81;5116510;28;20048;-81
2021/12/15 03:49:36;;;;;;;5.25;3.03;;;;;;;-2.49;100.00;100317.31;5116672;28;20168;-81
2021/12/15 03:52:04;;;;;;;9.05;3.72;;;;;;;-2.48;100.00;100321.56;5116652;28;20051;-79
2021/12/15 03:54:32;;;;;;;9.65;5.65;;;;;;;-2.48;100.00;100316.47;5116582;28;20090;-79
2021/12/15 03:56:59;;;;;;;4.68;2.25;;;;;;;-2.47;100.00;100302.88;5116650;28;20130;-77
2021/12/15 03:59:28;;;;;;;3.78;2.40;;;;;;;-2.46;100.00;100297.75;5116381;28;20051;-82
2021/12/15 04:01:56;;;;;;;6.85;3.58;;;;;;;-2.42;100.00;100291.75;5116263;28;20043;-81
2021/12/15 04:04:22;;;;;;;;;;;;;;;-2.38;100.00;100284.97;5117230;28;20086;-79
2021/12/15 04:06:49;;;;;;;5.25;2.63;;;;;;;-2.37;100.00;100293.44;5116494;28;20460;-81
2021/12/15 04:09:17;;;;;;;8.45;3.55;;;;;;;-2.36;100.00;100290.00;5116287;28;20130;-79
2021/12/15 04:11:46;;;;;;;4.88;2.97;;;;;;;-2.36;100.00;100295.97;5116458;28;20762;-78
2021/12/15 04:14:19;;;;;;;5.45;3.53;;;;;;;-2.36;100.00;100293.44;5116158;28;20067;-80
2021/12/15 04:16:59;;;;;;;5.38;3.17;;;;;;;-2.34;100.00;100286.59;5116228;28;20477;-81
2021/12/15 04:19:26;;;;;;;4.68;3.03;;;;;;;-2.32;100.00;100279.78;5116170;28;20051;-74
2021/12/15 04:21:53;;;;;;;3.65;2.60;;;;;;;-2.31;100.00;100262.78;5116443;28;20071;-74
2021/12/15 04:24:21;;;;;;;;;;;;;;;-2.27;100.00;100256.81;5116512;28;20461;-77
2021/12/15 04:26:49;;;;;;;4.85;3.47;;;;;;;-2.33;100.00;100264.53;5115915;28;19924;-80
2021/12/15 04:29:16;;;;;;;5.20;2.75;;;;;;;-2.31;100.00;100252.59;5115908;28;20075;-77
2021/12/15 04:31:50;;;;;;;4.68;2.80;;;;;;;-2.35;100.00;100248.41;5116179;28;20446;-73
2021/12/15 04:34:17;;;;;;;3.25;2.28;;;;;;;-2.34;100.00;100250.09;5115892;28;20051;-76
2021/12/15 04:36:50;;;;;;;3.35;2.55;;;;;;;-2.35;100.00;100240.75;5115786;28;20138;-77
2021/12/15 04:39:20;;;;;;;5.47;3.40;;;;;;;-2.34;100.00;100227.16;5115690;28;20044;-73
2021/12/15 04:41:50;;;;;;;6.00;3.38;;;;;;;-2.33;100.00;100214.41;5115546;28;20162;-74
2021/12/15 04:44:18;;;;;;;7.25;3.53;;;;;;;-2.31;100.00;100211.81;5127059;22;20071;-64
2021/12/15 04:46:58;;;;;;;4.80;2.85;;;;;;;-2.34;100.00;100206.75;5115351;28;20138;-63
2021/12/15 04:49:24;;;;;;;5.47;3.50;;;;;;;-2.35;100.00;100210.19;5115558;28;20051;-65
2021/12/15 04:51:52;;;;;;;1.48;1.38;;;;;;;-2.38;100.00;100216.16;5115408;28;20064;-65
2021/12/15 04:54:19;;;;;;;2.17;1.92;;;;;;;-2.37;100.00;100206.81;5115682;28;20136;-64
2021/12/15 04:56:47;;;;;;;5.28;2.97;;;;;;;-2.41;100.00;100211.09;5115314;28;20052;-64
2021/12/15 04:59:15;;;;;;;4.32;2.15;;;;;;;-2.38;100.00;100215.31;5115461;28;20043;-63
2021/12/15 05:01:42;;;;;;;3.75;2.60;;;;;;;-2.37;100.00;100220.38;5115229;28;20127;-64
2021/12/15 05:04:10;;;;;;;5.68;2.35;;;;;;;-2.38;100.00;100205.13;5115339;28;20058;-63
2021/12/15 05:06:39;;;;;;;4.28;2.33;;;;;;;-2.37;100.00;100209.34;5115351;28;20501;-63
2021/12/15 05:09:08;;;;;;;3.28;2.00;;;;;;;-2.39;100.00;100209.34;5115161;28;20088;-63
2021/12/15 05:11:35;;;;;;;2.22;1.83;;;;;;;-2.39;100.00;100206.81;5114897;28;20039;-64
2021/12/15 05:14:02;;;;;;;1.98;1.70;;;;;;;-2.36;100.00;100201.72;5114851;28;20048;-64
2021/12/15 05:16:29;;;;;;;;;;;;;;;-2.37;100.00;100207.66;5115091;28;20504;-63
2021/12/15 05:18:56;;;;;;;1.25;1.15;;;;;;;-2.38;100.00;100197.47;5114913;28;19926;-63
2021/12/15 05:21:25;;;;;;;3.40;2.17;;;;;;;-2.39;100.00;100190.69;5114841;28;20043;-63
2021/12/15 05:23:57;;;;;;;2.17;1.92;;;;;;;-2.42;100.00;100202.59;5114792;28;20131;-63
2021/12/15 05:26:24;;;;;;;4.72;2.50;;;;;;;-2.41;100.00;100203.47;5114791;28;20052;-62
2021/12/15 05:28:51;;;;;;;1.45;1.35;;;;;;;-2.42;100.00;100197.50;5114667;28;20508;-62
2021/12/15 05:31:19;;;;;;;3.00;2.40;;;;;;;-2.44;100.00;100199.25;5114680;28;20117;-63
2021/12/15 05:33:46;;;;;;;2.35;1.98;;;;;;;-2.42;100.00;100194.94;5114665;28;20397;-63
2021/12/15 05:36:13;;;;;;;4.03;2.40;;;;;;;-2.43;100.00;100217.91;5114886;28;20040;-64
2021/12/15 05:38:41;;;;;;;2.72;2.30;;;;;;;-2.43;100.00;100220.47;5114781;28;20051;-62
2021/12/15 05:41:08;;;;;;;1.98;1.70;;;;;;;-2.42;100.00;100202.59;5114511;28;20046;-63
2021/12/15 05:43:35;;;;;;;3.22;2.35;;;;;;;-2.38;100.00;100215.31;5124630;22;20054;-72
2021/12/15 05:46:02;;;;;;;4.85;1.80;;;;;;;-2.41;100.00;100222.13;5114200;28;20138;-74
2021/12/15 05:48:29;;;;;;;3.97;2.70;;;;;;;-2.39;100.00;100221.25;5114705;28;20075;-74
2021/12/15 05:50:56;;;;;;;1.88;1.23;;;;;;;-2.39;100.00;100221.25;5114496;28;20048;-75
2021/12/15 05:53:24;;;;;;;2.13;1.88;;;;;;;-2.42;100.00;100217.88;5114267;28;20126;-75
2021/12/15 05:55:53;;;;;;;4.25;2.47;;;;;;;-2.39;100.00;100206.81;5114071;28;20548;-75
2021/12/15 05:58:20;;;;;;;3.13;2.20;;;;;;;-2.37;100.00;100201.72;5114006;28;20083;-84
2021/12/15 06:00:49;;;;;;;3.90;2.20;;;;;;;-2.39;100.00;100214.44;5114022;28;20512;-80
2021/12/15 06:03:17;;;;;;;3.50;2.33;;;;;;;-2.36;100.00;100211.03;5113792;28;20520;-74
2021/12/15 06:05:44;;;;;;;2.85;1.88;;;;;;;-2.37;100.00;100204.25;5113604;28;20131;-76
2021/12/15 06:08:11;;;;;;;3.58;2.42;;;;;;;-2.37;100.00;100207.66;5113165;28;20066;-79
2021/12/15 06:10:39;;;;;;;2.25;1.95;;;;;;;-2.33;100.00;100200.81;5114096;28;20401;-80
2021/12/15 06:13:11;;;;;;;2.25;1.90;;;;;;;-2.33;100.00;100194.03;5113693;28;20130;-75
2021/12/15 06:15:39;;;;;;;1.60;1.40;;;;;;;-2.37;100.00;100176.22;5114122;28;20094;-79
2021/12/15 06:18:09;;;;;;;2.03;1.83;;;;;;;-2.36;100.00;100175.34;5114044;28;20073;-80
2021/12/15 06:20:37;;;;;;;2.55;2.25;;;;;;;-2.41;100.00;100171.19;5113890;28;20568;-77
2021/12/15 06:23:10;;;;;;;3.70;2.72;;;;;;;-2.43;100.00;100165.25;5113688;28;20541;-81
2021/12/15 06:25:38;;;;;;;3.00;2.58;;;;;;;-2.49;100.00;100162.78;5113538;28;20374;-74
2021/12/15 06:28:06;;;;;;;2.58;2.13;;;;;;;-2.51;100.00;100158.56;5113708;28;20085;-76
2021/12/15 06:30:35;;;;;;;2.92;1.90;;;;;;;-2.57;100.00;100156.06;5113676;28;20043;-87
2021/12/15 06:33:03;;;;;;;4.32;2.50;;;;;;;-2.52;100.00;100162.78;5113762;28;20089;-73
2021/12/15 06:35:31;;;;;;;3.05;2.33;;;;;;;-2.51;100.00;100158.56;5112199;28;20074;-87
2021/12/15 06:37:58;;;;;;;3.75;1.80;;;;;;;-2.50;100.00;100157.69;5113286;28;20058;-74
2021/12/15 06:40:25;;;;;;;4.10;2.78;;;;;;;-2.50;100.00;100147.50;5113428;28;20047;-74
2021/12/15 06:42:52;;;;;;;2.42;1.40;;;;;;;-2.48;100.00;100135.59;5113606;28;20130;-73
2021/12/15 06:45:24;;;;;;;2.92;1.80;;;;;;;-2.48;100.00;100128.78;5123878;22;20078;-66
2021/12/15 06:58:59;;;;;;;2.70;1.90;;;;;;;-2.57;100.00;100090.66;5113093;28;20058;-65
2021/12/15 07:01:26;;;;;;;5.82;2.47;;;;;;;-2.56;100.00;100089.00;5113066;28;20139;-65
2021/12/15 07:03:55;;;;;;;2.65;2.28;;;;;;;-2.57;100.00;100072.84;5112933;28;20137;-66
2021/12/15 07:06:22;;;;;;;3.38;2.08;;;;;;;-2.53;100.00;100066.88;5113089;28;20050;-65
2021/12/15 07:08:49;;;;;;;2.88;2.20;;;;;;;-2.55;100.00;100068.59;5112914;28;20383;-66
2021/12/15 07:11:17;;;;;;;1.90;1.63;;;;;;;-2.54;100.00;100059.22;5113071;28;20436;-63
2021/12/15 07:13:44;;;;;;;3.30;2.25;;;;;;;-2.48;100.00;100061.72;5113247;28;20048;-66
2021/12/15 07:16:12;;;;;;;3.15;2.30;;;;;;;-2.47;100.00;100050.66;5113149;28;20159;-65
2021/12/15 07:18:48;;;;;;;1.70;1.60;;;;;;;-2.45;100.00;100046.38;5112664;28;20455;-66
2021/12/15 07:21:21;;;;;;;4.03;2.78;;;;;;;-2.43;100.00;100020.03;5112930;28;20455;-66
2021/12/15 07:23:50;;;;;;;4.05;2.53;;;;;;;-2.45;100.00;100021.75;5113615;28;20044;-67
2021/12/15 07:26:18;;;;;;;3.30;2.55;;;;;;;-2.43;100.00;100019.19;5113631;28;20473;-66
2021/12/15 07:28:45;;;;;;;3.05;1.77;;;;;;;-2.42;100.00;100014.06;5112863;28;20143;-66
2021/12/15 07:31:13;;;;;;;1.98;1.80;;;;;;;-2.37;100.00;100002.97;5112741;28;20043;-66
2021/12/15 07:33:41;;;;;;;3.83;2.78;;;;;;;-2.36;100.00;99997.00;5112497;28;20138;-66
2021/12/15 07:36:08;;;;;;;2.97;2.50;;;;;;;-2.35;100.00;99985.97;5112695;28;20052;-64
2021/12/15 07:38:41;;;;;;;3.13;2.47;;;;;;;-2.35;100.00;99981.69;5112553;28;20146;-65
2021/12/15 07:41:18;;;;;;;3.97;2.75;;;;;;;-2.24;100.00;99992.56;5112626;28;20075;-64
2021/12/15 07:43:46;;;;;;;4.35;2.45;;;;;;;-2.23;100.00;99988.34;5122474;22;20048;-81
2021/12/15 07:46:13;;;;;;;3.92;3.10;;;;;;;-2.25;100.00;99980.69;5112472;28;20474;-82
2021/12/15 07:48:41;;;;;;;6.32;2.22;;;;;;;-2.23;100.00;99978.97;5112895;28;20056;-74
2021/12/15 07:51:09;;;;;;;4.03;2.78;;;;;;;-2.24;100.00;99987.47;5112903;28;20040;-83
2021/12/15 07:53:40;;;;;;;3.92;2.67;;;;;;;-2.22;100.00;99978.09;5112936;28;20135;-77
2021/12/15 07:56:08;;;;;;;3.22;2.22;;;;;;;-2.22;100.00;99985.75;5112856;28;20074;-75
2021/12/15 07:58:35;;;;;;;4.35;2.60;;;;;;;-2.18;100.00;99984.00;5112757;28;20474;-75
2021/12/15 08:01:04;;;;;;;2.85;2.45;;;;;;;-2.15;100.00;99978.03;5112458;28;20075;-73
2021/12/15 08:03:32;;;;;;;2.63;2.13;;;;;;;-2.13;100.00;99960.97;5112439;28;20466;-76
2021/12/15 08:06:00;;;;;;;4.32;2.58;;;;;;;-2.11;100.00;99956.69;5113642;28;20619;-76
2021/12/15 08:08:28;;;;;;;3.17;2.47;;;;;;;-2.11;100.00;99965.19;5112569;28;20130;-85
2021/12/15 08:10:57;;;;;;;3.50;2.00;;;;;;;-2.10;100.00;99966.06;5112555;28;20142;-80
2021/12/15 08:13:25;;;;;;;2.00;1.70;;;;;;;-2.10;100.00;99949.03;5112790;28;20050;-78
2021/12/15 08:15:52;;;;;;;3.45;2.00;;;;;;;-2.08;100.00;99952.41;5113285;28;20083;-74
2021/12/15 08:18:20;;;;;;;3.67;2.42;;;;;;;-2.06;100.00;99963.41;5113190;28;20047;-76
2021/12/15 08:20:48;;;;;;;1.75;1.63;;;;;;;-2.02;100.00;99954.03;5113391;28;20040;-74
2021/12/15 08:23:15;;;;;;;2.25;1.95;;;;;;;-2.01;100.00;99956.53;5113371;28;20466;-78
2021/12/15 08:25:42;;;;;;;;;;;;;;;-2.02;100.00;99965.06;5113119;28;20097;-76
2021/12/15 08:28:12;;;;;;;3.47;1.80;;;;;;;-1.99;100.00;99964.16;5113016;28;19920;-77
2021/12/15 08:30:41;;;;;;;2.00;1.75;;;;;;;-1.99;100.00;99959.06;5113073;28;20576;-73
2021/12/15 08:33:12;;;;;;;2.17;1.98;;;;;;;-1.95;100.00;99959.84;5117463;28;20130;-72
2021/12/15 08:35:44;;;;;;;3.35;2.10;;;;;;;-1.93;100.00;99955.56;5118123;28;20067;-79
2021/12/15 08:38:12;;;;;;;1.85;1.65;;;;;;;-1.92;100.00;99957.28;5118530;28;20138;-77
2021/12/15 08:40:40;;;;;;;3.83;2.28;;;;;;;-1.93;100.00;99956.41;5118879;28;20055;-73
2021/12/15 08:43:21;;;;;;;;;;;;;;;;;;;;;
2021/12/15 08:45:54;;;;;;;4.80;2.20;;;;;;;-1.87;100.00;99950.38;5113218;28;20063;-64
2021/12/15 08:48:21;;;;;;;3.38;2.50;;;;;;;-1.85;100.00;99952.03;5115695;28;20391;-65
2021/12/15 08:50:48;;;;;;;3.30;2.50;;;;;;;-1.85;100.00;99949.50;5115687;28;20565;-64
2021/12/15 08:53:16;;;;;;;3.78;2.58;;;;;;;-1.77;100.00;99949.34;5115588;28;20130;-63
2021/12/15 08:55:45;;;;;;;;;;;;;;;-1.76;100.00;99953.59;5115918;28;20092;-61
2021/12/15 08:58:13;;;;;;;3.35;2.83;;;;;;;-1.76;100.00;99944.22;5115826;28;19919;-63
2021/12/15 09:00:42;;;;;;;3.15;2.50;;;;;;;-1.74;100.00;99941.66;5115697;28;20047;-63
2021/12/15 09:03:12;;;;;;;3.17;2.47;;;;;;;-1.71;100.00;99941.59;5115576;28;20370;-63
2021/12/15 09:05:40;;;;;;;2.60;2.20;;;;;;;-1.71;100.00;99931.38;5115481;28;20090;-64
2021/12/15 09:08:07;;;;;;;2.20;1.80;;;;;;;-1.67;100.00;99932.16;5115197;28;20040;-64
2021/12/15 09:10:36;;;;;;;;;;;;;;;-1.61;100.00;99932.91;5115600;28;20150;-61
2021/12/15 09:13:04;;;;;;;4.38;2.33;;;;;;;-1.60;100.00;99939.69;5115535;28;20018;-63
2021/12/15 09:15:31;;;;;;;3.30;2.30;;;;;;;-1.57;100.00;99944.75;5115335;28;20236;-63
2021/12/15 09:17:58;;;;;;;;;;;;;;;-1.54;100.00;99943.84;5115506;28;20071;-63
2021/12/15 09:20:30;;;;;;;6.00;2.33;;;;;;;-1.51;100.00;99940.41;5115180;28;20026;-62
2021/12/15 09:22:59;;;;;;;4.38;2.83;;;;;;;-1.52;100.00;99939.53;5115154;28;20054;-63
2021/12/15 09:25:26;;;;;;;3.42;2.55;;;;;;;-1.49;100.00;99936.09;5115176;28;20105;-62
2021/12/15 09:27:55;;;;;;;3.90;2.08;;;;;;;-1.44;100.00;99929.19;5115165;28;20054;-62
2021/12/15 09:30:22;;;;;;;5.18;3.60;;;;;;;-1.40;100.00;99930.81;5114969;28;20096;-63
2021/12/15 09:32:50;;;;;;;6.28;2.80;;;;;;;-1.40;100.00;99921.44;5114923;28;20143;-63
2021/12/15 09:35:19;;;;;;;6.00;3.40;;;;;;;-1.35;100.00;99926.47;5114653;28;20047;-63
2021/12/15 09:37:49;;;;;;;5.07;3.67;;;;;;;-1.28;100.00;99916.97;5114687;28;20138;-63
2021/12/15 09:40:18;;;;;;;4.72;3.75;;;;;;;-1.26;100.00;99922.88;5114457;28;20475;-62
2021/12/15 09:42:46;;;;;;;9.07;3.67;;;;;;;-1.23;100.00;99918.56;5113512;28;20071;-63
2021/12/15 09:45:26;;;;;;;6.28;3.60;;;;;;;-1.16;100.00;99909.91;5115077;28;20494;-63
2021/12/15 09:48:17;;;;;;;5.97;3.42;;;;;;;-1.11;100.00;99907.25;5114611;28;20051;-63
2021/12/15 09:56:36;;;;;;;4.60;2.75;;;;;;;-0.98;100.00;99902.75;5114621;28;20105;-63
2021/12/15 10:02:06;;;;;;;2.38;1.67;;;;;;;-0.92;100.00;99906.00;5114357;28;20055;-63
2021/12/15 10:04:43;;;;;;;5.28;3.40;;;;;;;-0.93;100.00;99890.72;5114011;28;20116;-64
2021/12/15 10:07:21;;;;;;;6.18;2.47;;;;;;;-0.88;100.00;99888.91;5114395;28;20096;-63
2021/12/15 10:18:27;;;;;;;;;;;;;;;-0.77;100.00;99883.53;5114420;28;20135;-63
2021/12/15 10:20:55;;;;;;;4.82;2.53;;;;;;;-0.77;100.00;99875.88;5113743;28;20478;-63
2021/12/15 10:23:30;;;;;;;3.50;1.88;;;;;;;-0.76;100.00;99880.97;5113884;28;20442;-63
2021/12/15 10:25:59;;;;;;;1.27;1.17;;;;;;;-0.74;100.00;99869.00;5113883;28;20439;-63
2021/12/15 10:28:28;;;;;;;6.25;2.78;;;;;;;-0.74;100.00;99865.63;5113782;28;20143;-62
2021/12/15 10:30:59;;;;;;;3.22;2.47;;;;;;;-0.74;100.00;99861.34;5113603;28;20075;-64
2021/12/15 10:33:29;;;;;;;4.75;2.28;;;;;;;-0.72;100.00;99854.50;5113688;28;20044;-62
2021/12/15 10:35:58;;;;;;;3.28;1.98;;;;;;;-0.72;100.00;99849.38;5113828;28;20082;-63
2021/12/15 10:38:29;;;;;;;3.97;1.75;;;;;;;-0.68;100.00;99845.03;5113482;28;20138;-61
2021/12/15 10:41:04;;;;;;;3.40;2.25;;;;;;;-0.68;100.00;99847.59;5113476;28;20047;-60
2021/12/15 10:43:37;;;;;;;1.88;1.70;;;;;;;-0.65;100.00;99827.06;5124834;22;20131;-74
2021/12/15 10:46:07;;;;;;;3.33;2.50;;;;;;;-0.64;100.00;99815.13;5112284;28;20047;-81
2021/12/15 10:48:44;;;;;;;4.50;3.15;;;;;;;-0.61;100.00;99830.41;5113680;28;20135;-73
2021/12/15 10:51:36;;;;;;;9.40;4.22;;;;;;;-0.62;100.00;99823.59;5113310;28;20054;-75
2021/12/15 10:54:08;;;;;;;3.25;2.55;;;;;;;-0.61;100.00;99825.31;5112933;28;20126;-78
2021/12/15 10:56:39;;;;;;;4.32;2.72;;;;;;;-0.59;100.00;99828.63;5113159;28;20120;-78
2021/12/15 10:59:09;;;;;;;5.60;3.25;;;;;;;-0.57;100.00;99835.38;5113330;28;20076;-76
2021/12/15 11:01:55;;;;;;;5.85;3.08;;;;;;;-0.56;100.00;99838.81;5113181;28;20043;-74
2021/12/15 11:04:47;;;;;;;3.10;2.33;;;;;;;-0.54;100.00;99839.56;5113133;28;20139;-73
2021/12/15 11:07:25;;;;;;;4.88;3.97;;;;;;;-0.56;100.00;99837.09;5115912;28;20417;-74
2021/12/15 11:09:57;;;;;;;6.75;2.63;;;;;;;-0.54;100.00;99834.47;5114240;28;20043;-74
2021/12/15 11:12:28;;;;;;;3.58;2.25;;;;;;;-0.54;100.00;99826.81;5114484;28;20053;-73
2021/12/15 11:14:57;;;;;;;7.32;3.28;;;;;;;-0.51;100.00;99821.66;5113623;28;20130;-78
2021/12/15 11:17:27;;;;;;;4.35;2.78;;;;;;;-0.50;100.00;99818.19;5112807;28;20116;-73
2021/12/15 11:20:02;;;;;;;7.05;3.67;;;;;;;-0.52;100.00;99805.44;5112957;28;20079;-75
2021/12/15 11:22:49;;;;;;;5.25;3.20;;;;;;;-0.55;100.00;99784.25;5112908;28;20130;-74
2021/12/15 11:25:31;;;;;;;2.42;1.80;;;;;;;-0.52;100.00;99779.91;5112695;28;20100;-72
2021/12/15 11:28:03;;;;;;;7.45;3.28;;;;;;;-0.50;100.00;99780.69;5112668;28;20047;-73
2021/12/15 11:30:34;;;;;;;2.45;2.13;;;;;;;-0.50;100.00;99783.25;5112688;28;20075;-73
2021/12/15 11:33:04;;;;;;;7.72;3.50;;;;;;;-0.53;100.00;99788.44;5113046;28;20130;-73
2021/12/15 11:35:34;;;;;;;2.97;2.45;;;;;;;-0.52;100.00;99790.13;5112700;28;20126;-73
2021/12/15 11:38:07;;;;;;;5.47;3.35;;;;;;;-0.49;100.00;99792.63;5112612;28;20054;-74
2021/12/15 11:40:40;;;;;;;6.13;2.78;;;;;;;-0.46;100.00;99791.72;5112678;28;20050;-73
2021/12/15 11:43:10;;;;;;;8.68;3.25;;;;;;;-0.47;100.00;99790.84;5112960;28;20075;-76
2021/12/15 11:45:42;;;;;;;5.65;3.65;;;;;;;-0.42;100.00;99780.50;5122156;22;20162;-62
2021/12/15 11:48:16;;;;;;;3.60;1.70;;;;;;;-0.42;100.00;99774.56;5112287;28;20130;-61
2021/12/15 11:50:44;;;;;;;2.85;2.33;;;;;;;-0.43;100.00;99760.94;5112409;28;20048;-61
2021/12/15 11:53:23;;;;;;;2.70;1.77;;;;;;;-0.44;100.00;99761.81;5112274;28;20222;-61
2021/12/15 11:55:50;;;;;;;5.50;3.70;;;;;;;-0.43;100.00;99762.69;5091979;28;20140;-61
2021/12/15 11:58:30;;;;;;;10.98;3.20;;;;;;;-0.43;100.00;99758.41;5091958;28;20482;-62
2021/12/15 12:00:58;;;;;;;6.88;2.53;;;;;;;-0.43;100.00;99750.72;5091928;28;20052;-61
2021/12/15 12:03:25;;;;;;;4.40;2.83;;;;;;;-0.45;100.00;99753.31;5092122;28;20458;-61
2021/12/15 12:05:52;;;;;;;5.57;3.13;;;;;;;-0.47;100.00;99742.28;5093538;28;20050;-61
2021/12/15 12:08:19;;;;;;;4.32;2.58;;;;;;;-0.46;100.00;99743.97;5096464;28;20152;-62
2021/12/15 12:10:49;;;;;;;6.95;2.80;;;;;;;-0.43;100.00;99739.69;5095989;28;20086;-66
2021/12/15 12:13:23;;;;;;;9.38;3.90;;;;;;;-0.45;100.00;99730.31;5095781;28;20414;-61
2021/12/15 12:15:56;;;;;;;4.47;3.25;;;;;;;-0.42;100.00;99726.00;5096149;28;20040;-62
2021/12/15 12:18:26;;;;;;;4.10;2.72;;;;;;;-0.42;100.00;99724.28;5096216;28;20044;-61
2021/12/15 12:20:55;;;;;;;9.05;3.85;;;;;;;-0.41;100.00;99713.19;5095706;28;20554;-63
2021/12/15 12:23:24;;;;;;;11.95;3.85;;;;;;;-0.39;100.00;99705.47;5095588;28;20494;-64
2021/12/15 12:25:54;;;;;;;4.63;3.28;;;;;;;-0.39;100.00;99708.03;5095745;28;20048;-62
2021/12/15 12:28:26;;;;;;;3.15;2.47;;;;;;;-0.40;100.00;99701.25;5095436;28;20048;-63